SAWH Airport Information

Runway Information
Runway 7 Length 9186 ft width 148 ft
Elevation 85 ft Threshold 591 ft Heading 86
Runway 25 Length 9186 ft Width 148 ft
Elevation 74 ft Threshold 525 ft Heading 266
Airport Frequencies
Type RDO Name RDO Frequency 122.1 MHZ
Type TWR Name TWR/APP Frequency 118.1 MHZ
Airport Navaids
Type VOR Name Ushuaia Frequency 113700 KHZ
Airport Weather Information & NOTAM
ADDS - METARS form results

(0116 UTC 26 February 2018)
 
METAR text: SAWH 260100Z 36012KT 9999 SCT045 13/03 Q1001
Conditions at: SAWH (USHUAIA (ARG-NAV, AR) observed 0100 UTC 26 February 2018
Temperature: 13.0°C (55°F)
Dewpoint: 3.0°C (37°F) [RH = 51%]
Pressure (altimeter): 29.56 inches Hg (1001.0 mb)
Winds: from the N (360 degrees) at 14 MPH (12 knots; 6.2 m/s)
Visibility: 6 or more miles (10+ km)
Ceiling: at least 12,000 feet AGL
Clouds: scattered clouds at 4500 feet AGL
Weather: no significant weather observed at this time